Flight Track Log - Related Links

Times and Time Zones

All times are in EDT time to prevent confusion due to time zone crossing. See the JBU4 flight status page for this flight to view local times or setup timezone preferences in your user account.

Time Position Orientation Groundspeed Altitude Reporting Facility
EDT Latitude Longitude Course Direction KTS MPH feet Rate Location/Type
Sun 11:50:57 AM 18.4500 -65.9667 North 170 196 1,300  Level San Juan Center
Sun 11:51:57 AM 18.5000 -65.9667 360° North 220 253 2,200 1,850 Climbing San Juan Center
Sun 11:52:57 AM 18.5833 -65.9667 360° North 280 322 5,000 2,777 Climbing San Juan Center
Sun 11:53:00 AM 18.7514 -65.9831 North  Level FlightAware Approximate
Sun 11:53:58 AM 18.6667 -65.9667 360° North 290 334 7,800  Level San Juan Center
Sun 11:54:00 AM 18.8568 -65.9667 North  Level FlightAware Approximate
Sun 11:54:58 AM 18.7500 -65.9667 360° North 300 345 10,500  Level San Juan Center
Sun 11:55:00 AM 18.9633 -65.9667 North  Level FlightAware Approximate
Sun 11:55:59 AM 18.8500 -65.9667 360° North 350 403 11,500  Level San Juan Center
Sun 11:56:00 AM 19.0698 -65.9667 North  Level FlightAware Approximate
Sun 11:56:59 AM 18.9500 -65.9667 360° North 370 426 14,000  Level San Juan Center
Sun 11:57:59 AM 19.0500 -65.9667 360° North 380 437 15,500 1,600 Climbing San Juan Center
Sun 11:58:59 AM 19.1667 -65.9667 360° North 400 460 17,200 1,835 Climbing San Juan Center
Sun 12:00:00 PM 19.2500 -65.9667 360° North 380 437 19,200 1,785 Climbing San Juan Center
Sun 12:01:00 PM 19.3667 -65.9667 360° North 400 460 20,800 1,400 Climbing San Juan Center
Sun 12:02:00 PM 19.4833 -65.9667 360° North 420 483 22,000 1,289 Climbing San Juan Center
Sun 12:03:01 PM 19.6000 -65.9833 352° North 410 472 23,400 1,190 Climbing San Juan Center
Sun 12:04:01 PM 19.7000 -66.0333 335° Northwest 420 483 24,400 1,100 Climbing San Juan Center
Sun 12:05:01 PM 19.8167 -66.0833 338° Northwest 430 495 25,600 1,091 Climbing San Juan Center
Sun 12:06:02 PM 19.9333 -66.1333 338° Northwest 430 495 26,600 992 Climbing San Juan Center
Sun 12:07:02 PM 20.0667 -66.2000 335° Northwest 450 518 27,600 850 Climbing San Juan Center
Sun 12:08:02 PM 20.1833 -66.2500 338° Northwest 450 518 28,300 1,240 Climbing San Juan Center
Sun 12:09:03 PM 20.2833 -66.3167 328° Northwest 450 518 30,100 1,438 Climbing San Juan Center
Sun 12:10:03 PM 20.4000 -66.3667 338° Northwest 430 495 31,200 1,150 Climbing San Juan Center
Sun 12:11:03 PM 20.5167 -66.4167 338° Northwest 430 495 32,400 1,140 Climbing San Juan Center
Sun 12:12:04 PM 20.6167 -66.4667 335° Northwest 430 495 33,500 942 Climbing San Juan Center
Sun 12:13:04 PM 20.7167 -66.5167 335° Northwest 410 472 34,300 700 Climbing San Juan Center
Sun 12:14:04 PM 20.8333 -66.5667 338° Northwest 420 483 34,900 694 Climbing San Juan Center
Sun 12:15:05 PM 20.9333 -66.6167 335° Northwest 420 483 35,700 545 Climbing San Juan Center
Sun 12:16:05 PM 21.0500 -66.6667 338° Northwest 410 472 36,000 150 Climbing San Juan Center
Sun 12:17:05 PM 21.1500 -66.7167 335° Northwest 420 483 36,000  Level San Juan Center
Sun 12:19:05 PM 21.3667 -66.8167 337° Northwest 410 472 36,000  Level San Juan Center
Sun 12:20:06 PM 21.4667 -66.8667 335° Northwest 400 460 36,000  Level San Juan Center
Sun 12:21:06 PM 21.5667 -66.9167 335° Northwest 410 472 36,000  Level San Juan Center
Sun 12:22:06 PM 21.6833 -66.9667 338° Northwest 410 472 36,000  Level San Juan Center
Sun 12:23:07 PM 21.7833 -67.0167 335° Northwest 410 472 36,000  Level San Juan Center
Sun 12:23:58 PM 21.7667 -67.0167 329° Northwest 386 444 36,000  Level New York Oceanic (ODAPS)
Sun 12:25:08 PM 21.9833 -67.1500 329° Northwest 410 472 36,000  Level San Juan Center
Sun 12:26:07 PM 22.0667 -67.2167 323° Northwest 420 483 36,000  Level San Juan Center
Sun 12:27:08 PM 22.1667 -67.2833 328° Northwest 420 483 36,000  Level San Juan Center
Sun 12:28:08 PM 22.2833 -67.3500 332° Northwest 430 495 36,000  Level San Juan Center
Sun 12:29:09 PM 22.3833 -67.3500 360° North 430 495 36,000  Level San Juan Center
Sun 12:30:14 PM 22.5333 -67.3833 348° North 420 483 36,000  Level San Juan Center
Sun 12:31:14 PM 22.6500 -67.4000 352° North 430 495 36,000  Level San Juan Center
Sun 12:32:15 PM 22.7667 -67.4333 345° North 430 495 36,000  Level San Juan Center
Sun 12:33:15 PM 22.8833 -67.4500 353° North 430 495 36,000  Level San Juan Center
Sun 12:34:15 PM 23.0000 -67.4833 345° North 420 483 36,000  Level San Juan Center
Sun 12:35:15 PM 23.1167 -67.5000 353° North 430 495 36,000  Level San Juan Center
Sun 12:36:16 PM 23.2333 -67.5167 353° North 420 483 36,000  Level San Juan Center
Sun 12:37:16 PM 23.3500 -67.5500 345° North 420 483 36,000  Level San Juan Center
Sun 12:38:16 PM 23.4500 -67.5667 351° North 420 483 36,000  Level San Juan Center
Sun 12:39:17 PM 23.5667 -67.6000 345° North 420 483 36,000  Level San Juan Center
Sun 12:40:17 PM 23.6833 -67.6167 353° North 420 483 36,000  Level San Juan Center
Sun 12:41:17 PM 23.8000 -67.6500 345° North 420 483 36,000  Level San Juan Center
Sun 12:42:18 PM 23.9167 -67.6667 353° North 410 472 36,000  Level San Juan Center
Sun 12:43:18 PM 24.0333 -67.6833 353° North 420 483 36,000  Level San Juan Center
Sun 01:00:54 PM 25.4667 -68.0000 349° North 392 451 36,000  Level New York Oceanic (ODAPS)
Sun 01:23:50 PM 27.9333 -68.5333 349° North 387 445 36,000  Level New York Oceanic (ODAPS)
Sun 01:52:55 PM 30.9000 -69.2333 349° North 385 443 36,000  Level New York Oceanic (ODAPS)
Sun 02:47:40 PM 37.2494 -70.8319 330° Northwest 444 511 36,000  Level New York Center
Sun 02:48:00 PM 37.5073 -70.9249 348° North 385 443 36,000  Level FlightAware Transoceanic
Sun 02:48:40 PM 37.3369 -70.8739 339° North 444 511 36,000  Level New York Center
Sun 02:49:00 PM 37.6120 -70.9541 348° North 385 443 36,000  Level FlightAware Transoceanic
Sun 02:49:40 PM 37.4433 -70.9028 348° North 417 480 36,000  Level New York Center
Sun 02:50:00 PM 37.7167 -70.9833 330° Northwest 385 443 36,000  Level FlightAware Transoceanic
Sun 02:50:40 PM 37.5267 -70.9581 332° Northwest 391 450 36,000  Level New York Center
Sun 02:51:00 PM 37.8055 -71.0488 330° Northwest 385 443 36,000  Level FlightAware Transoceanic
Sun 02:51:40 PM 37.5933 -71.0447 314° West 353 406 36,000  Level New York Center
Sun 02:52:00 PM 37.8943 -71.1144 330° Northwest 385 443 36,000  Level FlightAware Transoceanic
Sun 02:52:40 PM 37.6725 -71.0975 332° Northwest 343 395 36,000 -60 Level New York Center
Sun 02:53:40 PM 37.7325 -71.1950 308° West 337 388 35,900  Descending New York Center
Sun 02:54:40 PM 37.8031 -71.2664 321° Northwest 337 388 36,000 50 Climbing New York Center
Sun 02:55:40 PM 37.8717 -71.3511 316° Northwest 332 382 36,000  Level New York Center
Sun 02:56:40 PM 37.9419 -71.4256 320° Northwest 332 382 36,000  Level New York Center
Sun 02:57:40 PM 38.0144 -71.5025 320° Northwest 338 389 36,000  Level New York Center
Sun 02:58:40 PM 38.0828 -71.5850 316° Northwest 338 389 36,000  Level New York Center
Sun 02:59:40 PM 38.1531 -71.6678 317° Northwest 343 395 36,000  Level New York Center
Sun 03:00:40 PM 38.2275 -71.7453 321° Northwest 343 395 36,000  Level New York Center
Sun 03:01:40 PM 38.2978 -71.8283 317° Northwest 343 395 36,000  Level New York Center
Sun 03:02:40 PM 38.3700 -71.9089 319° Northwest 343 395 36,000 -578 Level New York Center
Sun 03:08:04 PM 38.7603 -72.3638 318° Northwest 330 380 32,300 -873 Descending FlightAware ADS-B (KWWD)
Sun 03:09:05 PM 38.8315 -72.4464 318° Northwest 328 377 30,400 -1,855 Descending FlightAware ADS-B (KWWD)
Sun 03:09:54 PM 38.8834 -72.5069 317° Northwest 328 377 28,900 -1,895 Descending FlightAware ADS-B (KWWD)
Sun 03:10:59 PM 38.9592 -72.5954 318° Northwest 325 374 26,800 -1,920 Descending FlightAware ADS-B (KWWD)
Sun 03:11:34 PM 38.9981 -72.6408 317° Northwest 316 364 25,700 -1,808 Descending FlightAware ADS-B (KWWD)
Sun 03:12:12 PM 39.0394 -72.6894 318° Northwest 312 359 24,600 -1,655 Descending FlightAware ADS-B (KWWD)
Sun 03:13:01 PM 39.0914 -72.7508 317° Northwest 306 352 23,300 -1,674 Descending FlightAware ADS-B (KWWD)
Sun 03:13:38 PM 39.1070 -72.7692 317° Northwest 309 356 22,200 -1,683 Descending FlightAware ADS-B (KSNC)
Sun 03:14:23 PM 39.1775 -72.8522 317° Northwest 306 352 21,000 -1,658 Descending FlightAware ADS-B (KWWD)
Sun 03:14:54 PM 39.2088 -72.8893 317° Northwest 297 342 20,100 -1,622 Descending FlightAware ADS-B (KSNC)
Sun 03:15:00 PM 39.2152 -72.8969 316° Northwest 291 335 20,000 -1,463 Descending FlightAware ADS-B (KWWD)
Sun 03:15:35 PM 39.2455 -72.9328 317° Northwest 290 334 19,100 -1,672 Descending FlightAware ADS-B (KWWD)
Sun 03:16:01 PM 39.2481 -72.9358 317° Northwest 291 335 18,300 -1,831 Descending FlightAware ADS-B (KSNC)
Sun 03:16:34 PM 39.3096 -73.0087 317° Northwest 303 349 17,300 -1,688 Descending FlightAware ADS-B (KWWD)
Sun 03:17:05 PM 39.3416 -73.0465 317° Northwest 299 344 16,500 -1,607 Descending FlightAware ADS-B (KSNC)
Sun 03:17:30 PM 39.3652 -73.0747 316° Northwest 291 335 15,800 -1,742 Descending FlightAware ADS-B (KWWD)
Sun 03:18:07 PM 39.4044 -73.1213 316° Northwest 289 333 14,700 -1,500 Descending FlightAware ADS-B (KWWD)
Sun 03:18:42 PM 39.4396 -73.1633 316° Northwest 291 335 14,000 -696 Descending FlightAware ADS-B (KWWD)
Sun 03:19:16 PM 39.4699 -73.1995 316° Northwest 296 341 13,900 -532 Descending FlightAware ADS-B (KWWD)
Sun 03:20:01 PM 39.5187 -73.2581 317° Northwest 291 335 13,300 -1,218 Descending FlightAware ADS-B (KWWD)
Sun 03:22:33 PM 39.3777 -73.0897 317° Northwest 261 300 9,900 -763 Descending FlightAware ADS-B (KSNC)
Sun 03:25:47 PM 39.8342 -73.6383 317° Northwest 256 295 8,900 -268 Descending FlightAware ADS-B (KPHL)
Sun 03:26:17 PM 39.8613 -73.6710 316° Northwest 253 291 8,900  Level FlightAware ADS-B (KWWD)
Sun 03:26:38 PM 39.8793 -73.6929 317° Northwest 255 293 8,900  Level FlightAware ADS-B (KPHL)
Sun 03:27:06 PM 39.9037 -73.7224 316° Northwest 246 283 8,900  Level FlightAware ADS-B (KWWD)
Sun 03:27:36 PM 39.8843 -73.6989 317° Northwest 251 289 8,900  Level FlightAware ADS-B (KPHL)
Sun 03:28:17 PM 39.9597 -73.7908 317° Northwest 255 293 8,900  Level FlightAware ADS-B (KPHL)
Sun 03:28:37 PM 39.9768 -73.8108 334° Northwest 255 293 8,900  Level FlightAware ADS-B (KWWD)
Sun 03:28:54 PM 39.9996 -73.8264 337° Northwest 246 283 8,900  Level FlightAware ADS-B (KWWD)
Sun 03:29:17 PM 40.0247 -73.8395 338° Northwest 244 281 8,900  Level FlightAware ADS-B (KWWD)
Sun 03:29:35 PM 40.0444 -73.8499 337° Northwest 243 280 8,900  Level FlightAware ADS-B (KWWD)
Sun 03:29:59 PM 40.0711 -73.8626 342° North 255 293 8,900 -646 Level FlightAware ADS-B (KWWD)
Sun 03:30:40 PM 40.1144 -73.8758 342° North 250 288 8,200 -1,426 Descending New York Center
Sun 03:31:40 PM 40.1847 -73.8953 348° North 250 288 6,500 -1,750 Descending New York Center
Sun 03:32:40 PM 40.2383 -73.8461 35° Northeast 232 267 4,700 -1,550 Descending New York Center
Sun 03:33:40 PM 40.2819 -73.7639 55° Northeast 256 295 3,400 -1,200 Descending New York Center
Sun 03:34:40 PM 40.3356 -73.7089 38° Northeast 247 284 2,300 -700 Descending New York Center
Sun 03:35:40 PM 40.3825 -73.6672 34° Northeast 215 247 2,000 -150 Descending New York Center
Sun 03:36:40 PM 40.4333 -73.6286 30° Northeast 203 234 2,000 50 Level New York Center
Sun 03:37:40 PM 40.4797 -73.6058 20° North 185 213 2,100 -50 Climbing New York Center
Sun 03:38:40 PM 40.5186 -73.6322 333° Northwest 156 180 1,900 -150 Descending New York Center
Sun 03:39:40 PM 40.5578 -73.6556 336° Northwest 145 167 1,800  Descending New York Center
Sun 03:40:40 PM 40.5861 -73.6814 325° Northwest 145 167 1,900 -350 Climbing New York Center
Sun 03:41:40 PM 40.6058 -73.7261 300° West 135 155 1,100 -800 Descending New York Center

Login

Don't have an account? Register now (free) for customized features, flight alerts, and more!